Time;durP1;ratioP1;P1;durP2;ratioP2;P2;SDS_P1;SDS_P2;PMS_P1;PMS_P2;Temp;Humidity;BMP_temperature;BMP_pressure;BME280_temperature;BME280_humidity;BME280_pressure;Samples;Min_cycle;Max_cycle;Signal;HPM_P1;HPM_P2
2021/01/06 00:02:12;;;;;;;17.23;13.50;;;;;;;1.54;100.00;98166.25;4903636;28;103318;-74
2021/01/06 00:04:39;;;;;;;18.07;13.87;;;;;;;1.56;100.00;98172.25;4900398;28;111216;-75
2021/01/06 00:07:06;;;;;;;19.73;14.20;;;;;;;1.44;100.00;98162.38;4901847;28;106491;-73
2021/01/06 00:09:34;;;;;;;19.80;14.00;;;;;;;1.44;100.00;98167.56;4905489;28;102663;-74
2021/01/06 00:12:01;;;;;;;18.37;13.33;;;;;;;1.44;100.00;98171.91;4902297;28;103592;-73
2021/01/06 00:14:28;;;;;;;18.43;13.80;;;;;;;1.58;100.00;98172.16;4898910;28;104782;-72
2021/01/06 00:16:55;;;;;;;18.77;13.23;;;;;;;1.58;100.00;98169.56;4903320;28;110298;-73
2021/01/06 00:19:22;;;;;;;18.57;14.13;;;;;;;1.49;100.00;98168.19;4899097;28;103800;-73
2021/01/06 00:21:50;;;;;;;18.83;13.27;;;;;;;1.66;100.00;98167.44;4903167;28;103273;-73
2021/01/06 00:24:17;;;;;;;21.10;14.13;;;;;;;1.59;100.00;98171.25;4904403;28;104440;-73
2021/01/06 00:26:45;;;;;;;19.33;12.93;;;;;;;1.55;100.00;98167.94;4900927;28;104548;-73
2021/01/06 00:29:13;;;;;;;16.90;12.67;;;;;;;1.45;100.00;98168.41;4904987;28;103204;-72
2021/01/06 00:31:42;;;;;;;20.80;13.37;;;;;;;1.35;100.00;98162.75;4905037;28;103289;-73
2021/01/06 00:34:10;;;;;;;17.00;13.17;;;;;;;1.55;100.00;98169.69;4909088;28;103207;-73
2021/01/06 00:36:37;;;;;;;17.03;13.53;;;;;;;1.52;100.00;98162.00;4908922;28;104913;-73
2021/01/06 00:39:05;;;;;;;17.93;13.23;;;;;;;1.51;100.00;98162.94;4907990;28;103504;-73
2021/01/06 00:41:34;;;;;;;16.97;11.87;;;;;;;1.63;100.00;98157.16;4906613;28;102848;-73
2021/01/06 00:44:03;;;;;;;20.37;14.07;;;;;;;1.34;100.00;98161.09;4903783;28;104992;-73
2021/01/06 00:46:34;;;;;;;15.53;12.03;;;;;;;1.41;100.00;98157.28;4906478;28;103764;-73
2021/01/06 00:49:01;;;;;;;17.13;12.20;;;;;;;1.48;100.00;98163.94;4907308;28;102668;-73
2021/01/06 00:51:29;;;;;;;16.93;12.70;;;;;;;1.30;100.00;98164.72;4905629;28;104580;-74
2021/01/06 00:53:56;;;;;;;16.97;11.97;;;;;;;1.31;100.00;98161.22;4908297;28;104564;-73
2021/01/06 00:56:28;;;;;;;17.43;12.43;;;;;;;1.43;100.00;98158.06;4906558;28;104845;-73
2021/01/06 00:58:56;;;;;;;18.07;12.73;;;;;;;1.52;100.00;98149.84;4897771;28;102935;-73
2021/01/06 01:01:26;;;;;;;16.97;12.37;;;;;;;1.47;100.00;98163.97;4907401;28;103175;-74
2021/01/06 01:03:54;;;;;;;16.00;11.97;;;;;;;1.39;100.00;98161.72;4902322;28;105371;-74
2021/01/06 01:06:27;;;;;;;16.90;11.77;;;;;;;1.47;100.00;98162.22;4901041;28;106699;-73
2021/01/06 01:08:55;;;;;;;15.87;12.27;;;;;;;1.45;100.00;98158.00;4919280;28;104589;-74
2021/01/06 01:11:23;;;;;;;15.20;11.80;;;;;;;1.52;100.00;98162.88;4898754;28;103257;-73
2021/01/06 01:13:51;;;;;;;15.37;12.07;;;;;;;1.39;100.00;98164.31;4904083;28;103887;-73
2021/01/06 01:16:19;;;;;;;17.13;11.90;;;;;;;1.31;100.00;98161.22;4908521;28;103899;-74
2021/01/06 01:18:48;;;;;;;16.40;11.87;;;;;;;1.37;100.00;98170.50;4916674;28;102988;-73
2021/01/06 01:21:18;;;;;;;16.40;12.27;;;;;;;1.41;100.00;98167.69;4904883;28;104677;-74
2021/01/06 01:23:46;;;;;;;14.50;11.33;;;;;;;1.36;100.00;98174.88;4896632;28;105098;-73
2021/01/06 01:26:13;;;;;;;14.97;11.07;;;;;;;1.40;100.00;98171.22;4905629;28;104203;-73
2021/01/06 01:28:40;;;;;;;15.17;11.23;;;;;;;1.38;100.00;98172.19;4905233;28;102682;-75
2021/01/06 01:31:07;;;;;;;15.80;10.90;;;;;;;1.37;100.00;98171.38;4904407;28;102958;-73
2021/01/06 01:33:34;;;;;;;16.13;11.47;;;;;;;1.22;100.00;98172.03;4896282;28;104906;-76
2021/01/06 01:36:02;;;;;;;14.50;10.57;;;;;;;1.31;100.00;98176.84;4906596;28;103291;-74
2021/01/06 01:38:31;;;;;;;13.83;10.80;;;;;;;1.34;100.00;98174.09;4900167;28;104626;-73
2021/01/06 01:41:00;;;;;;;13.70;10.43;;;;;;;1.40;100.00;98176.44;4903880;28;103911;-74
2021/01/06 01:43:32;;;;;;;15.40;10.87;;;;;;;1.50;100.00;98184.66;4916735;28;105689;-73
2021/01/06 01:46:31;;;;;;;12.67;10.17;;;;;;;1.36;100.00;98180.06;4906476;28;104479;-76
2021/01/06 01:49:00;;;;;;;14.00;10.63;;;;;;;1.36;100.00;98179.22;4907051;28;103388;-74
2021/01/06 01:51:34;;;;;;;15.37;10.73;;;;;;;1.36;100.00;98185.28;4899039;28;103207;-74
2021/01/06 01:54:06;;;;;;;15.83;11.63;;;;;;;1.46;100.00;98180.53;4897447;28;103414;-74
2021/01/06 01:56:39;;;;;;;14.37;11.03;;;;;;;1.59;100.00;98182.53;4904865;28;104531;-73
2021/01/06 01:59:11;;;;;;;15.57;11.47;;;;;;;1.44;100.00;98183.19;4901427;28;104511;-73
2021/01/06 02:01:39;;;;;;;17.70;10.90;;;;;;;1.38;100.00;98183.44;4897460;28;104139;-73
2021/01/06 02:04:11;;;;;;;15.67;11.30;;;;;;;1.34;100.00;98181.91;4904835;28;103896;-73
2021/01/06 02:06:44;;;;;;;14.47;10.70;;;;;;;1.52;100.00;98177.63;4906468;28;103862;-74
2021/01/06 02:09:17;;;;;;;16.47;11.93;;;;;;;1.37;100.00;98180.94;4903773;28;104355;-75
2021/01/06 02:11:50;;;;;;;13.80;10.53;;;;;;;1.47;100.00;98177.84;4903256;28;103104;-74
2021/01/06 02:14:21;;;;;;;13.83;9.67;;;;;;;1.38;100.00;98178.25;4903402;28;104460;-73
2021/01/06 02:16:54;;;;;;;11.83;9.60;;;;;;;1.49;100.00;98173.41;4906353;28;103214;-74
2021/01/06 02:19:24;;;;;;;12.00;9.20;;;;;;;1.51;100.00;98169.00;4905865;28;104363;-73
2021/01/06 02:21:52;;;;;;;11.90;9.47;;;;;;;1.53;100.00;98172.38;4904815;28;103354;-73
2021/01/06 02:24:21;;;;;;;15.23;11.20;;;;;;;1.54;100.00;98168.03;4921138;28;105923;-74
2021/01/06 02:26:48;;;;;;;13.63;10.07;;;;;;;1.62;100.00;98168.53;4901965;28;104467;-74
2021/01/06 02:29:16;;;;;;;14.90;11.37;;;;;;;1.34;100.00;98166.28;4901002;28;103414;-73
2021/01/06 02:31:44;;;;;;;13.23;10.20;;;;;;;1.48;100.00;98163.06;4906277;28;103308;-73
2021/01/06 02:34:12;;;;;;;13.00;9.77;;;;;;;1.40;100.00;98160.81;4905230;28;104077;-74
2021/01/06 02:36:39;;;;;;;12.50;10.73;;;;;;;1.21;100.00;98159.91;4901627;28;103763;-74
2021/01/06 02:39:10;;;;;;;15.90;11.40;;;;;;;1.12;100.00;98160.31;4901561;28;103239;-73
2021/01/06 02:41:39;;;;;;;14.60;11.03;;;;;;;1.08;100.00;98162.22;4901531;28;104584;-74
2021/01/06 02:44:08;;;;;;;11.97;9.90;;;;;;;1.25;100.00;98166.69;4902261;28;104702;-73
2021/01/06 02:46:37;;;;;;;15.07;11.80;;;;;;;1.03;100.00;98164.16;4901217;28;103870;-73
2021/01/06 02:49:06;;;;;;;15.53;12.17;;;;;;;1.10;100.00;98159.53;4908999;28;103307;-74
2021/01/06 02:51:39;;;;;;;13.73;10.70;;;;;;;1.20;100.00;98160.00;4911138;28;103949;-74
2021/01/06 02:54:09;;;;;;;15.97;11.53;;;;;;;1.14;100.00;98153.28;4909218;28;103130;-74
2021/01/06 02:56:40;;;;;;;15.67;11.70;;;;;;;1.13;100.00;98156.78;4907125;28;103827;-74
2021/01/06 02:59:09;;;;;;;15.90;11.83;;;;;;;0.88;100.00;98161.34;4894163;28;103427;-73
2021/01/06 03:01:38;;;;;;;15.33;11.13;;;;;;;0.93;100.00;98159.41;4900442;28;103724;-74
2021/01/06 03:04:08;;;;;;;13.77;10.33;;;;;;;0.86;100.00;98158.81;4903908;28;104497;-74
2021/01/06 03:06:41;;;;;;;14.40;11.60;;;;;;;0.85;100.00;98157.13;4904851;28;105751;-74
2021/01/06 03:09:33;;;;;;;19.10;12.50;;;;;;;0.91;100.00;98156.88;4904497;28;103343;-73
2021/01/06 03:12:03;;;;;;;16.17;12.00;;;;;;;0.93;100.00;98154.19;4898416;28;104353;-74
2021/01/06 03:14:33;;;;;;;13.27;9.33;;;;;;;1.13;100.00;98149.00;4893241;28;112866;-74
2021/01/06 03:17:02;;;;;;;14.23;11.07;;;;;;;0.99;100.00;98154.78;4900651;28;103750;-75
2021/01/06 03:19:34;;;;;;;15.20;13.03;;;;;;;1.13;100.00;98149.00;4901312;28;102613;-74
2021/01/06 03:22:03;;;;;;;14.03;10.83;;;;;;;1.24;100.00;98151.97;4897457;28;103121;-73
2021/01/06 03:24:35;;;;;;;14.30;11.40;;;;;;;1.16;100.00;98154.06;4906554;28;104050;-73
2021/01/06 03:27:03;;;;;;;15.13;12.13;;;;;;;1.21;100.00;98149.50;4898966;28;104618;-73
2021/01/06 03:29:33;;;;;;;14.67;11.53;;;;;;;1.09;100.00;98150.06;4901311;28;103153;-74
2021/01/06 03:32:04;;;;;;;15.67;12.00;;;;;;;0.98;100.00;98140.09;4904978;28;103413;-73
2021/01/06 03:34:37;;;;;;;14.80;11.80;;;;;;;1.15;100.00;98136.78;4903131;28;104474;-74
2021/01/06 03:37:12;;;;;;;15.17;11.33;;;;;;;1.05;100.00;98138.06;4899913;28;105069;-74
2021/01/06 03:39:45;;;;;;;13.97;11.03;;;;;;;1.11;100.00;98143.03;4901852;28;104309;-73
2021/01/06 03:42:12;;;;;;;16.40;13.40;;;;;;;1.20;100.00;98140.03;4894752;28;103264;-73
2021/01/06 03:44:43;;;;;;;15.37;11.30;;;;;;;1.22;100.00;98133.00;4905925;28;103985;-73
2021/01/06 03:47:17;;;;;;;16.77;11.57;;;;;;;1.01;100.00;98139.13;4898521;28;103914;-73
2021/01/06 03:49:58;;;;;;;15.33;11.80;;;;;;;0.93;100.00;98136.00;4899850;28;103080;-73
2021/01/06 03:52:42;;;;;;;14.03;10.93;;;;;;;0.93;100.00;98133.38;4905331;28;103205;-75
2021/01/06 03:55:22;;;;;;;13.47;10.77;;;;;;;1.00;100.00;98134.84;4896343;28;105095;-75
2021/01/06 03:57:52;;;;;;;16.07;10.87;;;;;;;1.12;100.00;98131.72;4895786;28;103288;-73
2021/01/06 04:00:39;;;;;;;15.43;11.27;;;;;;;1.18;100.00;98137.47;4904027;28;103144;-73
2021/01/06 04:03:16;;;;;;;17.13;12.53;;;;;;;0.92;100.00;98136.91;4902582;28;103359;-73
2021/01/06 04:05:45;;;;;;;15.53;11.23;;;;;;;0.94;100.00;98129.88;4888089;28;106019;-75
2021/01/06 04:08:17;;;;;;;15.27;11.83;;;;;;;0.94;100.00;98135.94;4902585;28;104966;-73
2021/01/06 04:10:51;;;;;;;19.23;12.90;;;;;;;0.83;100.00;98132.09;4905829;28;102931;-73
2021/01/06 04:13:18;;;;;;;17.23;12.07;;;;;;;0.89;100.00;98124.88;4906996;28;102940;-73
2021/01/06 04:15:45;;;;;;;16.80;12.07;;;;;;;0.87;100.00;98134.50;4902328;28;103944;-73
2021/01/06 04:18:12;;;;;;;15.83;11.67;;;;;;;0.92;100.00;98131.72;4903499;28;107502;-74
2021/01/06 04:20:41;;;;;;;16.07;12.07;;;;;;;0.92;100.00;98131.72;4902998;28;103105;-74
2021/01/06 04:23:11;;;;;;;16.60;11.83;;;;;;;0.93;100.00;98133.38;4908853;28;102632;-75
2021/01/06 04:25:41;;;;;;;16.70;11.90;;;;;;;0.99;100.00;98133.13;4910064;28;104000;-73
2021/01/06 04:28:12;;;;;;;16.33;12.37;;;;;;;0.99;100.00;98127.94;4883820;28;105899;-73
2021/01/06 04:30:41;;;;;;;16.13;11.97;;;;;;;0.97;100.00;98127.16;4905971;28;103449;-73
2021/01/06 04:33:10;;;;;;;17.10;12.37;;;;;;;0.96;100.00;98133.25;4906726;28;103158;-73
2021/01/06 04:35:37;;;;;;;14.43;10.17;;;;;;;0.99;100.00;98128.78;4895373;28;104669;-73
2021/01/06 04:38:05;;;;;;;15.27;11.23;;;;;;;1.03;100.00;98132.09;4904751;28;108963;-73
2021/01/06 04:40:36;;;;;;;15.10;10.47;;;;;;;0.93;100.00;98123.84;4906030;28;103338;-74
2021/01/06 04:43:16;;;;;;;16.33;11.40;;;;;;;0.83;100.00;98132.94;4909942;28;102529;-73
2021/01/06 04:45:51;;;;;;;16.60;11.90;;;;;;;0.84;100.00;98139.00;4904465;28;104417;-75
2021/01/06 04:48:42;;;;;;;13.90;10.57;;;;;;;0.76;100.00;98141.91;4902401;28;104474;-73
2021/01/06 04:51:23;;;;;;;14.97;10.50;;;;;;;0.84;100.00;98132.03;4903748;28;104610;-73
2021/01/06 04:54:16;;;;;;;13.57;10.87;;;;;;;0.76;100.00;98130.69;4899431;28;103535;-74
2021/01/06 04:57:03;;;;;;;14.10;11.07;;;;;;;0.74;100.00;98132.47;4901747;28;103791;-73
2021/01/06 04:59:50;;;;;;;14.03;10.43;;;;;;;0.84;100.00;98128.59;4909012;28;103721;-74
2021/01/06 05:02:36;;;;;;;13.13;9.57;;;;;;;0.84;100.00;98133.81;4904125;28;103618;-75
2021/01/06 05:05:30;;;;;;;11.70;9.20;;;;;;;0.79;100.00;98128.78;4906505;28;103767;-73
2021/01/06 05:08:07;;;;;;;14.47;10.00;;;;;;;0.76;100.00;98130.69;4904225;28;105459;-75
2021/01/06 05:10:36;;;;;;;11.93;9.77;;;;;;;0.88;100.00;98132.75;4902676;28;104481;-73
2021/01/06 05:13:13;;;;;;;11.00;9.57;;;;;;;0.73;100.00;98138.59;4905220;28;104481;-73
2021/01/06 05:15:44;;;;;;;12.50;10.03;;;;;;;0.82;100.00;98131.25;4893477;28;102601;-73
2021/01/06 05:18:12;;;;;;;11.93;9.17;;;;;;;0.75;100.00;98127.22;4896509;28;104876;-73
2021/01/06 05:20:39;;;;;;;14.23;9.57;;;;;;;0.77;100.00;98127.16;4907534;28;104489;-74
2021/01/06 05:23:16;;;;;;;10.30;8.70;;;;;;;0.77;100.00;98125.41;4905964;28;103582;-74
2021/01/06 05:25:44;;;;;;;12.43;9.10;;;;;;;0.77;100.00;98134.94;4903345;28;104675;-73
2021/01/06 05:28:14;;;;;;;11.83;9.60;;;;;;;0.82;100.00;98131.25;4902989;28;105755;-73
2021/01/06 05:30:44;;;;;;;9.73;8.53;;;;;;;0.88;100.00;98136.19;4902844;28;107447;-73
2021/01/06 05:33:13;;;;;;;11.13;8.50;;;;;;;0.89;100.00;98137.03;4905735;28;104627;-73
2021/01/06 05:35:42;;;;;;;10.70;8.10;;;;;;;0.93;100.00;98130.78;4896076;28;102918;-73
2021/01/06 05:38:10;;;;;;;10.10;8.30;;;;;;;0.89;100.00;98131.84;4905983;28;103943;-74
2021/01/06 05:40:39;;;;;;;9.33;8.30;;;;;;;0.89;100.00;98137.03;4902120;28;104857;-75
2021/01/06 05:43:08;;;;;;;10.17;8.40;;;;;;;0.85;100.00;98140.66;4905016;28;102665;-73
2021/01/06 05:45:45;;;;;;;9.63;8.33;;;;;;;0.84;100.00;98141.59;4902553;28;104265;-73
2021/01/06 05:48:19;;;;;;;10.17;7.80;;;;;;;0.76;100.00;98148.88;4903348;28;103961;-73
2021/01/06 05:50:52;;;;;;;9.27;8.00;;;;;;;0.79;100.00;98148.72;4903824;28;109822;-74
2021/01/06 05:53:30;;;;;;;10.67;8.33;;;;;;;0.93;100.00;98143.78;4900717;28;102718;-76
2021/01/06 05:56:01;;;;;;;10.03;6.60;;;;;;;1.05;100.00;98145.88;4907278;28;102741;-73
2021/01/06 05:58:32;;;;;;;10.43;8.23;;;;;;;0.92;100.00;98144.72;4902367;28;104659;-73
2021/01/06 06:01:08;;;;;;;11.03;7.80;;;;;;;1.06;100.00;98144.97;4911142;28;103772;-73
2021/01/06 06:03:54;;;;;;;8.87;7.70;;;;;;;0.96;100.00;98141.06;4907491;28;103231;-74
2021/01/06 06:06:46;;;;;;;9.03;7.17;;;;;;;1.03;100.00;98138.16;4909254;28;103971;-73
2021/01/06 06:09:27;;;;;;;8.90;7.30;;;;;;;1.00;100.00;98142.63;4914406;28;104415;-73
2021/01/06 06:12:15;;;;;;;10.03;8.00;;;;;;;0.98;100.00;98141.88;4918135;28;104818;-74
2021/01/06 06:15:15;;;;;;;8.23;6.97;;;;;;;1.02;100.00;98148.59;4901938;28;106245;-76
2021/01/06 06:18:10;;;;;;;9.53;7.30;;;;;;;0.91;100.00;98150.81;4901152;28;103101;-73
2021/01/06 06:20:54;;;;;;;8.80;7.10;;;;;;;0.94;100.00;98148.09;4900303;28;106755;-74
2021/01/06 06:23:49;;;;;;;8.50;7.17;;;;;;;1.06;100.00;98150.19;4900703;28;105219;-74
2021/01/06 06:26:23;;;;;;;8.47;7.37;;;;;;;0.98;100.00;98147.06;4897666;28;102764;-74
2021/01/06 06:28:55;;;;;;;8.23;6.87;;;;;;;1.00;100.00;98146.09;4901636;28;103573;-73
2021/01/06 06:31:30;;;;;;;7.70;5.97;;;;;;;1.05;100.00;98148.47;4901038;28;103941;-75
2021/01/06 06:34:00;;;;;;;8.67;7.37;;;;;;;0.97;100.00;98153.16;4899312;28;105259;-73
2021/01/06 06:36:31;;;;;;;8.93;7.60;;;;;;;0.85;100.00;98157.13;4899496;28;104693;-73
2021/01/06 06:39:03;;;;;;;8.07;6.63;;;;;;;0.96;100.00;98160.13;4904815;28;105117;-73
2021/01/06 06:41:35;;;;;;;7.87;6.83;;;;;;;0.98;100.00;98163.50;4902675;28;108752;-73
2021/01/06 06:44:28;;;;;;;9.70;7.40;;;;;;;1.04;100.00;98163.25;4903568;28;103234;-73
2021/01/06 06:47:11;;;;;;;8.97;6.63;;;;;;;1.05;100.00;98170.13;4900383;28;103353;-73
2021/01/06 06:49:59;;;;;;;8.57;6.80;;;;;;;0.93;100.00;98169.81;4905923;28;103054;-73
2021/01/06 06:52:31;;;;;;;8.83;7.47;;;;;;;0.88;100.00;98176.97;4899943;28;104106;-74
2021/01/06 06:55:05;;;;;;;7.77;6.70;;;;;;;1.06;100.00;98165.78;4901849;28;104519;-73
2021/01/06 06:57:38;;;;;;;7.67;6.30;;;;;;;1.06;100.00;98166.66;4901593;28;104295;-73
2021/01/06 07:00:15;;;;;;;7.63;6.83;;;;;;;0.95;100.00;98179.25;4904604;28;104420;-73
2021/01/06 07:02:45;;;;;;;8.23;6.43;;;;;;;0.91;100.00;98175.09;4896291;28;103954;-73
2021/01/06 07:05:26;;;;;;;7.30;6.30;;;;;;;1.01;100.00;98183.34;4907059;28;105248;-77
2021/01/06 07:07:57;;;;;;;8.13;6.47;;;;;;;1.01;100.00;98184.19;4899025;28;102976;-75
2021/01/06 07:10:27;;;;;;;8.43;7.33;;;;;;;1.00;100.00;98181.66;4905424;28;104004;-81
2021/01/06 07:12:57;;;;;;;8.40;6.73;;;;;;;0.95;100.00;98179.25;4906135;28;103321;-76
2021/01/06 07:15:31;;;;;;;7.53;6.73;;;;;;;1.03;100.00;98176.31;4902636;28;104724;-77
2021/01/06 07:18:00;;;;;;;7.03;6.10;;;;;;;1.12;100.00;98178.53;4902370;28;103194;-78
2021/01/06 07:20:36;;;;;;;7.90;6.90;;;;;;;1.01;100.00;98186.78;4896641;28;103724;-82
2021/01/06 07:23:13;;;;;;;8.17;6.30;;;;;;;0.97;100.00;98185.22;4904704;28;103814;-76
2021/01/06 07:25:42;;;;;;;6.67;5.93;;;;;;;1.12;100.00;98186.34;4899702;28;104799;-79
2021/01/06 07:28:15;;;;;;;6.67;5.33;;;;;;;1.20;100.00;98183.41;4899360;28;105068;-79
2021/01/06 07:30:44;;;;;;;6.87;6.00;;;;;;;1.26;100.00;98184.00;4903057;28;104685;-78
2021/01/06 07:33:23;;;;;;;7.60;6.60;;;;;;;1.19;100.00;98182.56;4897302;28;105755;-80
2021/01/06 07:35:51;;;;;;;7.57;6.33;;;;;;;1.24;100.00;98185.81;4902499;28;103869;-76
2021/01/06 07:38:21;;;;;;;6.20;5.57;;;;;;;1.39;100.00;98190.34;4906789;28;102718;-82
2021/01/06 07:40:57;;;;;;;7.83;7.03;;;;;;;1.25;100.00;98191.84;4907088;28;105355;-78
2021/01/06 07:43:26;;;;;;;7.97;7.17;;;;;;;1.22;100.00;98199.78;4910091;28;104164;-86
2021/01/06 07:46:21;;;;;;;9.00;8.10;;;;;;;1.18;100.00;98199.06;4911585;28;102998;-78
2021/01/06 07:48:57;;;;;;;6.67;5.80;;;;;;;1.31;100.00;98202.88;4910567;28;103014;-78
2021/01/06 07:51:35;;;;;;;8.37;6.23;;;;;;;1.39;100.00;98195.56;4903948;28;103426;-76
2021/01/06 07:54:13;;;;;;;8.07;7.17;;;;;;;1.31;100.00;98207.22;4906989;28;105098;-79
2021/01/06 07:56:46;;;;;;;8.47;6.90;;;;;;;1.03;100.00;98207.53;4905147;28;103832;-76
2021/01/06 07:59:23;;;;;;;8.47;7.03;;;;;;;1.00;100.00;98208.53;4907185;28;103007;-75
2021/01/06 08:01:58;;;;;;;7.77;7.07;;;;;;;1.02;100.00;98209.28;4903994;28;103222;-74
2021/01/06 08:04:30;;;;;;;6.20;5.60;;;;;;;1.16;100.00;98213.91;4904469;28;104912;-76
2021/01/06 08:06:59;;;;;;;8.83;7.07;;;;;;;1.17;100.00;98211.25;4906099;28;104350;-75
2021/01/06 08:09:36;;;;;;;7.70;6.63;;;;;;;1.11;100.00;98216.72;4906414;28;104420;-76
2021/01/06 08:12:19;;;;;;;8.03;7.17;;;;;;;1.09;100.00;98212.50;4906388;28;103195;-75
2021/01/06 08:14:46;;;;;;;8.03;7.20;;;;;;;1.03;100.00;98213.59;4905005;28;104828;-75
2021/01/06 08:17:20;;;;;;;8.87;7.97;;;;;;;1.22;100.00;98208.44;4903948;28;103777;-74
2021/01/06 08:20:05;;;;;;;9.40;7.47;;;;;;;1.12;100.00;98217.56;4902848;28;103209;-72
2021/01/06 08:22:40;;;;;;;8.20;7.20;;;;;;;0.95;100.00;98222.63;4927091;28;102932;-89
2021/01/06 08:25:18;;;;;;;8.30;7.20;;;;;;;0.98;100.00;98230.31;5101706;22;103115;-76
2021/01/06 08:27:45;;;;;;;9.07;8.13;;;;;;;0.91;100.00;98228.84;4928566;28;103920;-78
2021/01/06 08:30:20;;;;;;;10.93;8.13;;;;;;;0.98;100.00;98218.13;4923039;28;103083;-76
2021/01/06 08:33:00;;;;;;;9.80;8.20;;;;;;;0.93;100.00;98216.63;4924815;28;102727;-76
2021/01/06 08:35:31;;;;;;;9.17;7.90;;;;;;;0.90;100.00;98215.00;4930082;28;103011;-80
2021/01/06 08:37:59;;;;;;;8.87;7.23;;;;;;;1.01;100.00;98222.38;4930667;28;102721;-77
2021/01/06 08:40:31;;;;;;;9.40;7.60;;;;;;;0.98;100.00;98230.31;4923095;28;104733;-77
2021/01/06 08:43:02;;;;;;;9.43;7.60;;;;;;;1.08;100.00;98229.00;4924198;28;103284;-77
2021/01/06 08:45:32;;;;;;;9.70;8.27;;;;;;;0.96;100.00;98224.28;4927274;28;103973;-83
2021/01/06 08:48:14;;;;;;;10.13;8.90;;;;;;;0.93;100.00;98227.03;4929988;28;103757;-78
2021/01/06 08:50:44;;;;;;;9.53;7.67;;;;;;;0.97;100.00;98228.59;5146352;22;104583;-76
2021/01/06 08:53:15;;;;;;;8.77;6.97;;;;;;;0.97;100.00;98231.19;4930808;28;103783;-78
2021/01/06 08:56:09;;;;;;;9.30;7.80;;;;;;;0.92;100.00;98230.56;4927216;28;104346;-78
2021/01/06 08:58:45;;;;;;;11.77;10.10;;;;;;;0.87;100.00;98227.31;4911806;28;104436;-80
2021/01/06 09:01:32;;;;;;;12.10;7.87;;;;;;;0.98;100.00;98238.09;4921877;28;103207;-78
2021/01/06 09:04:05;;;;;;;8.70;7.43;;;;;;;1.00;100.00;98231.06;4918226;28;104552;-79
2021/01/06 09:06:32;;;;;;;9.40;8.40;;;;;;;1.12;100.00;98233.19;4918398;28;104359;-79
2021/01/06 09:09:27;;;;;;;15.07;11.97;;;;;;;1.04;100.00;98230.03;4920877;28;103223;-79
2021/01/06 09:11:55;;;;;;;10.83;9.13;;;;;;;1.13;100.00;98229.66;4923118;28;103101;-80
2021/01/06 09:14:31;;;;;;;9.93;8.67;;;;;;;1.18;100.00;98233.75;4924673;28;102658;-80
2021/01/06 09:17:14;;;;;;;10.63;9.30;;;;;;;1.10;100.00;98234.97;4921398;28;105256;-80
2021/01/06 09:19:46;;;;;;;10.97;9.87;;;;;;;1.06;100.00;98238.63;4925550;28;104326;-80
2021/01/06 09:22:17;;;;;;;10.63;8.67;;;;;;;1.11;100.00;98247.09;4918874;28;104645;-79
2021/01/06 09:24:46;;;;;;;9.93;8.03;;;;;;;1.16;100.00;98229.53;4930705;28;103341;-80
2021/01/06 09:27:28;;;;;;;9.60;7.37;;;;;;;1.28;100.00;98238.56;4921973;28;105444;-79
2021/01/06 09:29:58;;;;;;;8.17;6.60;;;;;;;1.42;100.00;98250.09;4919330;28;105907;-78
2021/01/06 09:32:30;;;;;;;9.30;8.40;;;;;;;1.35;100.00;98246.03;4916343;28;104618;-78
2021/01/06 09:35:00;;;;;;;8.60;7.63;;;;;;;1.49;100.00;98248.06;4922771;28;103269;-79
2021/01/06 09:37:30;;;;;;;9.47;8.47;;;;;;;1.44;100.00;98256.06;4921694;28;103677;-80
2021/01/06 09:40:04;;;;;;;11.93;9.87;;;;;;;1.48;100.00;98249.00;4917869;28;105332;-80
2021/01/06 09:42:33;;;;;;;7.40;6.53;;;;;;;1.55;100.00;98248.66;4917750;28;103201;-80
2021/01/06 09:45:00;;;;;;;8.07;6.43;;;;;;;1.69;100.00;98261.91;4924665;28;103214;-80
2021/01/06 09:47:32;;;;;;;10.13;8.27;;;;;;;1.54;100.00;98257.38;4923093;28;103448;-80
2021/01/06 09:50:03;;;;;;;9.80;7.37;;;;;;;1.62;100.00;98259.66;4925933;28;104413;-81
2021/01/06 09:52:34;;;;;;;7.10;6.40;;;;;;;1.72;100.00;98258.31;4929619;28;105115;-80
2021/01/06 09:55:03;;;;;;;12.23;8.13;;;;;;;1.50;100.00;98263.63;4916517;28;106177;-80
2021/01/06 09:57:31;;;;;;;7.73;6.67;;;;;;;1.58;100.00;98261.53;4907488;28;104943;-79
2021/01/06 10:00:09;;;;;;;8.57;6.83;;;;;;;1.60;100.00;98266.69;4911029;28;103941;-79
2021/01/06 10:02:37;;;;;;;12.43;8.30;;;;;;;1.55;100.00;98258.22;4923481;28;104422;-79
2021/01/06 10:05:32;;;;;;;7.63;6.70;;;;;;;1.48;100.00;98256.78;4925647;28;103342;-79
2021/01/06 10:08:12;;;;;;;10.07;8.87;;;;;;;1.55;100.00;98237.38;4909984;28;104319;-79
2021/01/06 10:10:42;;;;;;;10.77;9.20;;;;;;;1.65;100.00;98249.09;4917172;28;104949;-80
2021/01/06 10:13:17;;;;;;;10.43;7.17;;;;;;;1.54;100.00;98246.97;4922285;28;102789;-80
2021/01/06 10:15:58;;;;;;;9.10;8.10;;;;;;;1.62;100.00;98255.28;4923231;28;103806;-79
2021/01/06 10:18:34;;;;;;;9.93;6.60;;;;;;;1.71;100.00;98249.66;4915698;28;103468;-80
2021/01/06 10:21:11;;;;;;;9.70;7.43;;;;;;;1.58;100.00;98248.50;4922694;28;104857;-79
2021/01/06 10:24:08;;;;;;;11.10;7.90;;;;;;;1.65;100.00;98249.97;4923415;28;102614;-80
2021/01/06 10:26:46;;;;;;;7.93;6.93;;;;;;;1.58;100.00;98240.72;4918058;28;104452;-80
2021/01/06 10:29:18;;;;;;;9.30;8.40;;;;;;;1.51;100.00;98247.09;4918517;28;103906;-79
2021/01/06 10:32:05;;;;;;;8.20;7.40;;;;;;;1.55;100.00;98243.44;4911873;28;103788;-79
2021/01/06 10:34:37;;;;;;;8.47;6.93;;;;;;;1.60;100.00;98244.09;4922721;28;104766;-79
2021/01/06 10:37:20;;;;;;;9.00;7.33;;;;;;;1.71;100.00;98249.66;4922065;28;103207;-79
2021/01/06 10:39:50;;;;;;;12.27;8.53;;;;;;;1.77;100.00;98245.13;4919297;28;103958;-79
2021/01/06 10:42:36;;;;;;;9.63;7.60;;;;;;;1.70;100.00;98250.59;4925147;28;104622;-78
2021/01/06 10:45:14;;;;;;;9.43;7.63;;;;;;;1.77;100.00;98242.53;4916494;28;102558;-79
2021/01/06 10:47:48;;;;;;;11.53;8.63;;;;;;;1.77;100.00;98244.19;4922940;28;104334;-79
2021/01/06 10:50:45;;;;;;;9.67;7.63;;;;;;;1.87;100.00;98249.00;4917025;28;102861;-79
2021/01/06 10:53:30;;;;;;;10.77;8.27;;;;;;;1.79;100.00;98245.88;4925031;28;104187;-78
2021/01/06 10:56:05;;;;;;;14.23;11.50;;;;;;;1.68;100.00;98239.38;4923730;28;103151;-79
2021/01/06 10:58:47;;;;;;;11.23;9.47;;;;;;;1.76;100.00;98239.06;4925122;28;103202;-78
2021/01/06 11:01:47;;;;;;;11.37;8.83;;;;;;;1.73;100.00;98234.84;4921676;28;103347;-79
2021/01/06 11:04:28;;;;;;;10.40;8.70;;;;;;;1.71;100.00;98241.84;4924169;28;103473;-79
2021/01/06 11:07:02;;;;;;;8.53;7.40;;;;;;;1.73;100.00;98240.03;4924985;28;103098;-78
2021/01/06 11:09:53;;;;;;;10.17;8.43;;;;;;;1.58;100.00;98235.50;4923898;28;103667;-79
2021/01/06 11:12:47;;;;;;;9.87;8.73;;;;;;;1.68;100.00;98243.75;4915465;28;104168;-81
2021/01/06 11:15:44;;;;;;;10.47;8.83;;;;;;;1.62;100.00;98237.06;4931710;28;103265;-79
2021/01/06 11:18:19;;;;;;;10.43;8.67;;;;;;;1.62;100.00;98239.69;4927451;28;102750;-78
2021/01/06 11:21:04;;;;;;;9.27;7.40;;;;;;;1.68;100.00;98234.16;4929679;28;102972;-79
2021/01/06 11:23:55;;;;;;;10.70;8.87;;;;;;;1.75;100.00;98235.59;4937866;28;102868;-77
2021/01/06 11:26:52;;;;;;;11.57;9.67;;;;;;;1.77;100.00;98226.88;4923402;28;103076;-77
2021/01/06 11:29:53;;;;;;;10.97;8.90;;;;;;;1.83;100.00;98231.81;4912052;28;102625;-77
2021/01/06 11:32:31;;;;;;;7.70;6.90;;;;;;;1.97;100.00;98234.63;4924833;28;103472;-77
2021/01/06 11:35:30;;;;;;;10.33;8.57;;;;;;;1.94;100.00;98224.38;4919435;28;105793;-77
2021/01/06 11:38:00;;;;;;;10.70;8.70;;;;;;;1.97;100.00;98229.41;4828953;29;103697;-78
2021/01/06 11:40:49;;;;;;;10.33;9.20;;;;;;;1.84;100.00;98220.47;4903354;28;103714;-78
2021/01/06 11:43:57;;;;;;;10.57;9.47;;;;;;;1.80;100.00;98221.53;4921523;28;104029;-77
2021/01/06 11:46:43;;;;;;;11.93;9.57;;;;;;;1.79;100.00;98219.84;4857997;28;104331;-78
2021/01/06 11:49:26;;;;;;;16.57;10.97;;;;;;;1.77;100.00;98218.13;4857644;28;103748;-77
2021/01/06 11:52:30;;;;;;;11.33;9.97;;;;;;;1.82;100.00;98215.34;4907139;28;103097;-77